»·PEaware :: AAL1742 KPHX-KBOI

AAL1742 :: KPHX-KBOI

FLIGHT INFORMATION

Flight Status: Arrived
Operator:
American Airlines
More flights by this operator :: More flights under this callsign
Pilot: Kevin M. (7)
Aircraft: BOEING 737-800
(B738)
More flights by this aircraft type
Origin: KPHX Phoenix Sky Harbor Intl
United States
Destination: KBOI Boise Air Terminal/Gowen
United States
More flights between these airports :: More routes between these airports
Route: +CHILY4 HOBES BCE PATIO BROPH SPUUD3
File this flight plan on PilotEdge
Remarks:
Altitude:
(Current/Filed)
36,000ft
Speed:
(Current/Filed)
470kts
Departed: 12-Sep-18 12:37 PM
Arrived: 12-Sep-18 02:20 PM
Distance/Time
Traveled:
639nm/1:43
Distance/Time
To Go:
Arrived

Flight Plot

Page will automatically refresh every two minutes.

Flight plan parsing failed; only flown route is shown


Map Options




Map Legend


Flown Route
Filed Route
Departure Airport
Arrival Airport
Navaid (VOR, NDB)
Fix

Horizontal Profiles

Position Reports

Time Latitude Longitude Heading Altitude Ground
Speed
12-Sep-18 12:21 33.438229 -111.998787 240 1142ft 0kts
12-Sep-18 12:22 33.438229 -111.998787 240 1142ft 0kts
12-Sep-18 12:23 33.438229 -111.998787 240 1142ft 0kts
12-Sep-18 12:24 33.438229 -111.998787 240 1142ft 0kts
12-Sep-18 12:25 33.438229 -111.998787 240 1142ft 0kts
12-Sep-18 12:26 33.438229 -111.998787 240 1142ft 0kts
12-Sep-18 12:27 33.438229 -111.998787 240 1142ft 0kts
12-Sep-18 12:28 33.438229 -111.998787 240 1142ft 0kts
12-Sep-18 12:29 33.438229 -111.998787 240 1142ft 0kts
12-Sep-18 12:30 33.438229 -111.998787 240 1142ft 0kts
12-Sep-18 12:31 33.438229 -111.998787 240 1142ft 0kts
12-Sep-18 12:32 33.438318 -111.998602 239 1142ft 2kts
12-Sep-18 12:33 33.438154 -111.998270 0 1142ft 0kts
12-Sep-18 12:34 33.438154 -111.998270 0 1142ft 0kts
12-Sep-18 12:35 33.438206 -111.998270 0 1142ft 4kts
12-Sep-18 12:36 33.439735 -111.995178 89 1142ft 14kts
12-Sep-18 12:37 33.439821 -111.992404 39 1142ft 0kts
12-Sep-18 12:38 33.440825 -111.993283 272 1142ft 4kts
12-Sep-18 12:39 33.440879 -112.028632 269 1681ft 178kts
12-Sep-18 12:40 33.439001 -112.096345 269 3536ft 241kts
12-Sep-18 12:41 33.441794 -112.182257 294 5903ft 275kts
12-Sep-18 12:42 33.504598 -112.227679 0 8787ft 297kts
12-Sep-18 12:43 33.589166 -112.224521 343 10921ft 326kts
12-Sep-18 12:44 33.684548 -112.248819 345 12054ft 385kts
12-Sep-18 12:45 33.795891 -112.276612 345 13438ft 421kts
12-Sep-18 12:46 33.911282 -112.305352 345 15478ft 432kts
12-Sep-18 12:47 34.029616 -112.335906 339 17392ft 440kts
12-Sep-18 12:48 34.134580 -112.398973 329 19136ft 444kts
12-Sep-18 12:49 34.244967 -112.467976 329 20847ft 453kts
12-Sep-18 12:50 34.358044 -112.538564 329 22440ft 462kts
12-Sep-18 12:51 34.472963 -112.610412 329 23935ft 471kts
12-Sep-18 12:52 34.587159 -112.681985 329 25338ft 479kts
12-Sep-18 12:53 34.705831 -112.756566 329 26715ft 487kts
12-Sep-18 12:54 34.827215 -112.833080 329 28093ft 494kts
12-Sep-18 12:55 34.954604 -112.891670 350 29794ft 503kts
12-Sep-18 12:56 35.094568 -112.872285 6 31316ft 511kts
12-Sep-18 12:57 35.230236 -112.842150 6 32846ft 505kts
12-Sep-18 12:58 35.367900 -112.811982 5 34240ft 501kts
12-Sep-18 12:59 35.504007 -112.782229 5 35451ft 497kts
12-Sep-18 13:00 35.638892 -112.752757 5 36217ft 495kts
12-Sep-18 13:01 35.773069 -112.723438 5 36223ft 492kts
12-Sep-18 13:02 35.907805 -112.693991 5 36223ft 493kts
12-Sep-18 13:03 36.041940 -112.664670 5 36224ft 492kts
12-Sep-18 13:04 36.173086 -112.636001 5 36220ft 492kts
12-Sep-18 13:05 36.307429 -112.606632 5 36198ft 492kts
12-Sep-18 13:06 36.441711 -112.577270 5 36129ft 492kts
12-Sep-18 13:07 36.576135 -112.547878 5 36091ft 492kts
12-Sep-18 13:08 36.710593 -112.518476 5 36101ft 493kts
12-Sep-18 13:09 36.845408 -112.488992 5 36087ft 492kts
12-Sep-18 13:10 36.979834 -112.459585 5 36087ft 493kts
12-Sep-18 13:11 37.113655 -112.430284 3 36089ft 508kts
12-Sep-18 13:12 37.252628 -112.399850 3 36089ft 510kts
12-Sep-18 13:13 37.391788 -112.369360 3 36066ft 508kts
12-Sep-18 13:14 37.529008 -112.339361 3 36045ft 510kts
12-Sep-18 13:15 37.668359 -112.308942 3 36041ft 509kts
12-Sep-18 13:16 37.805730 -112.309342 349 36206ft 497kts
12-Sep-18 13:17 37.943216 -112.318800 349 36210ft 497kts
12-Sep-18 13:18 38.080463 -112.327804 350 36210ft 496kts
12-Sep-18 13:19 38.215163 -112.336513 350 36188ft 495kts
12-Sep-18 13:20 38.352602 -112.345365 350 36058ft 496kts
12-Sep-18 13:21 38.490101 -112.354231 350 35970ft 497kts
12-Sep-18 13:22 38.627676 -112.363079 350 35958ft 497kts
12-Sep-18 13:23 38.765406 -112.371924 350 35947ft 497kts
12-Sep-18 13:24 38.902692 -112.380764 350 35942ft 497kts
12-Sep-18 13:25 39.040354 -112.389586 350 35943ft 496kts
12-Sep-18 13:26 39.143858 -112.396268 350 35937ft 495kts
12-Sep-18 13:27 39.280928 -112.405094 350 35938ft 496kts
12-Sep-18 13:28 39.418573 -112.413938 349 35937ft 496kts
12-Sep-18 13:29 39.555501 -112.422748 350 35939ft 496kts
12-Sep-18 13:30 39.692767 -112.431583 350 35940ft 495kts
12-Sep-18 13:31 39.829419 -112.440396 350 35944ft 496kts
12-Sep-18 13:32 39.961941 -112.448935 350 35947ft 496kts
12-Sep-18 13:33 40.099289 -112.457782 350 35948ft 495kts
12-Sep-18 13:34 40.233088 -112.466418 350 35941ft 496kts
12-Sep-18 13:35 40.369899 -112.475222 350 35936ft 496kts
12-Sep-18 13:36 40.507155 -112.484066 350 35939ft 496kts
12-Sep-18 13:37 40.644579 -112.492933 350 35939ft 496kts
12-Sep-18 13:38 40.782027 -112.501787 350 35941ft 495kts
12-Sep-18 13:39 40.919515 -112.510663 350 35941ft 496kts
12-Sep-18 13:40 41.057500 -112.519593 349 35946ft 501kts
12-Sep-18 13:41 41.191762 -112.530470 340 35936ft 495kts
12-Sep-18 13:42 41.308982 -112.604284 310 35947ft 454kts
12-Sep-18 13:43 41.390868 -112.724118 300 35949ft 439kts
12-Sep-18 13:44 41.469766 -112.847941 300 35945ft 438kts
12-Sep-18 13:45 41.548322 -112.971336 299 35947ft 435kts
12-Sep-18 13:46 41.625986 -113.093761 298 35944ft 434kts
12-Sep-18 13:47 41.703832 -113.216981 298 35951ft 435kts
12-Sep-18 13:48 41.781768 -113.340799 298 35959ft 435kts
12-Sep-18 13:49 41.859216 -113.464288 298 35950ft 434kts
12-Sep-18 13:50 41.923743 -113.567602 298 35954ft 434kts
12-Sep-18 13:51 42.013120 -113.711318 298 35965ft 433kts
12-Sep-18 13:52 42.090073 -113.835756 298 35965ft 433kts
12-Sep-18 13:53 42.150926 -113.934506 298 35953ft 434kts
12-Sep-18 13:54 42.240666 -114.080661 298 35951ft 433kts
12-Sep-18 13:55 42.316225 -114.203915 297 35952ft 415kts
12-Sep-18 13:56 42.377331 -114.304206 297 35956ft 416kts
12-Sep-18 13:57 42.450363 -114.424480 297 34961ft 416kts
12-Sep-18 13:58 42.535688 -114.565563 298 31196ft 417kts
12-Sep-18 13:59 42.589051 -114.654362 299 29182ft 432kts
12-Sep-18 14:00 42.649260 -114.754823 299 27335ft 427kts
12-Sep-18 14:01 42.722862 -114.877754 301 25179ft 418kts
12-Sep-18 14:02 42.801528 -114.991689 305 23022ft 410kts
12-Sep-18 14:03 42.878257 -115.101845 305 20951ft 399kts
12-Sep-18 14:04 42.953219 -115.210170 307 18954ft 389kts
12-Sep-18 14:05 43.025872 -115.315794 309 17055ft 380kts
12-Sep-18 14:06 43.097222 -115.419886 310 15242ft 373kts
12-Sep-18 14:07 43.165277 -115.519160 312 13531ft 363kts
12-Sep-18 14:08 43.233312 -115.612709 313 11898ft 335kts
12-Sep-18 14:09 43.295715 -115.699621 312 10371ft 315kts
12-Sep-18 14:10 43.354577 -115.781621 312 9349ft 289kts
12-Sep-18 14:11 43.409446 -115.858125 312 8336ft 276kts
12-Sep-18 14:12 43.453075 -115.933823 302 7287ft 269kts
12-Sep-18 14:13 43.453075 -115.933823 302 7287ft 269kts
12-Sep-18 14:14 43.453075 -115.933823 302 7287ft 269kts
12-Sep-18 14:15 43.453075 -115.933823 302 7287ft 269kts
12-Sep-18 14:16 43.453075 -115.933823 302 7287ft 269kts
12-Sep-18 14:17 43.453075 -115.933823 302 7287ft 269kts
12-Sep-18 14:18 43.487382 -116.004066 306 6497ft 268kts
12-Sep-18 14:19 43.518828 -116.089478 297 5125ft 217kts
12-Sep-18 14:20 43.541216 -116.152203 297 3673ft 159kts
12-Sep-18 14:21 43.559867 -116.206641 297 2893ft 153kts
12-Sep-18 14:22 43.568513 -116.228506 93 2879ft 21kts
12-Sep-18 14:23 43.566441 -116.221571 76 2879ft 17kts
12-Sep-18 14:24 43.567230 -116.220598 20 2879ft 0kts

Navigation Log

Ident Type
Flight plan parsing failed, navigation log unavailable